Time;durP1;ratioP1;P1;durP2;ratioP2;P2;SDS_P1;SDS_P2;PMS_P1;PMS_P2;Temp;Humidity;BMP_temperature;BMP_pressure;BME280_temperature;BME280_humidity;BME280_pressure;Samples;Min_cycle;Max_cycle;Signal;HPM_P1;HPM_P2
2021/12/17 00:00:59;;;;;;;25.02;19.38;;;;;;;4.44;100.00;100328.69;2079936;28;20231;-75
2021/12/17 00:03:32;;;;;;;22.83;20.35;;;;;;;4.42;100.00;100326.25;2080366;28;20227;-74
2021/12/17 00:04:38;;;;;;;24.52;18.20;;;;;;;4.42;100.00;100328.09;2085820;28;20222;-74
2021/12/17 00:06:05;;;;;;;25.38;20.75;;;;;;;4.38;100.00;100319.81;2079478;28;20269;-74
2021/12/17 00:07:12;;;;;;;26.30;20.48;;;;;;;4.38;100.00;100319.00;2078743;28;20222;-74
2021/12/17 00:08:13;;;;;;;27.58;21.52;;;;;;;4.37;100.00;100328.78;2078966;28;20230;-74
2021/12/17 00:09:15;;;;;;;25.10;20.55;;;;;;;4.39;100.00;100324.06;2079266;28;20298;-74
2021/12/17 00:10:18;;;;;;;30.08;21.45;;;;;;;4.37;100.00;100318.22;2079162;28;20235;-75
2021/12/17 00:11:21;;;;;;;27.65;20.58;;;;;;;4.42;100.00;100318.31;2079839;28;20251;-75
2021/12/17 00:12:24;;;;;;;28.80;21.23;;;;;;;4.40;100.00;100307.19;2079906;28;20226;-75
2021/12/17 00:13:30;;;;;;;24.85;19.55;;;;;;;4.37;100.00;100309.47;2087000;28;20222;-76
2021/12/17 00:14:37;;;;;;;29.02;20.67;;;;;;;4.37;100.00;100318.22;2079978;28;20219;-73
2021/12/17 00:15:39;;;;;;;29.05;20.70;;;;;;;4.35;100.00;100312.34;2078820;28;20634;-73
2021/12/17 00:16:42;;;;;;;35.97;21.02;;;;;;;4.32;100.00;100312.78;2079693;28;20233;-76
2021/12/17 00:17:52;;;;;;;24.48;20.50;;;;;;;4.32;100.00;100314.63;2079322;28;20710;-75
2021/12/17 00:19:10;;;;;;;21.90;19.60;;;;;;;4.30;100.00;100320.13;2078816;28;20310;-73
2021/12/17 00:20:46;;;;;;;24.88;19.15;;;;;;;4.31;100.00;100313.81;2077961;28;20238;-76
2021/12/17 00:43:57;;;;;;;22.23;19.77;;;;;;;4.44;100.00;100318.94;2075142;28;20227;-74
2021/12/17 00:48:42;;;;;;;21.33;18.50;;;;;;;4.38;100.00;100308.44;2078594;28;20259;-75
2021/12/17 00:50:00;;;;;;;23.60;20.00;;;;;;;4.32;100.00;100312.78;2078677;28;20616;-74
2021/12/17 00:52:33;;;;;;;23.23;18.88;;;;;;;4.31;100.00;100313.00;2063599;28;20242;-74
2021/12/17 00:53:34;;;;;;;22.15;19.67;;;;;;;4.28;100.00;100316.91;2078714;28;20701;-74
2021/12/17 00:54:40;;;;;;;27.33;19.10;;;;;;;4.25;100.00;100320.78;2078739;28;20229;-74
2021/12/17 00:55:41;;;;;;;24.75;18.92;;;;;;;4.23;100.00;100319.41;2079214;28;20231;-74
2021/12/17 00:56:43;;;;;;;25.70;20.02;;;;;;;4.24;100.00;100315.72;2086844;28;20257;-74
2021/12/17 00:57:47;;;;;;;28.30;19.20;;;;;;;4.21;100.00;100313.53;2078678;28;20223;-74
2021/12/17 00:58:48;;;;;;;23.03;19.33;;;;;;;4.16;100.00;100316.03;2070160;28;20223;-74
2021/12/17 00:59:53;;;;;;;23.52;19.00;;;;;;;4.15;100.00;100317.06;2078558;28;20266;-74
2021/12/17 01:00:54;;;;;;;28.00;19.13;;;;;;;4.14;100.00;100323.38;2078342;28;20737;-75
2021/12/17 01:02:00;;;;;;;21.87;18.53;;;;;;;4.11;100.00;100315.91;2070514;28;20600;-75
2021/12/17 01:03:01;;;;;;;25.67;19.20;;;;;;;4.09;100.00;100308.22;2078694;28;20715;-74
2021/12/17 01:04:03;;;;;;;28.77;18.75;;;;;;;4.09;100.00;100300.28;2078809;28;20219;-74
2021/12/17 01:05:08;;;;;;;22.35;18.67;;;;;;;4.13;100.00;100311.22;2086950;28;20726;-74
2021/12/17 01:06:09;;;;;;;21.45;18.13;;;;;;;4.14;100.00;100318.91;2078226;28;20243;-75
2021/12/17 01:07:11;;;;;;;26.52;19.38;;;;;;;4.15;100.00;100311.78;2078613;28;20227;-74
2021/12/17 01:08:13;;;;;;;20.48;18.30;;;;;;;4.15;100.00;100314.44;2077948;28;20584;-74
2021/12/17 01:09:16;;;;;;;25.67;19.80;;;;;;;4.18;100.00;100309.53;2070527;28;20220;-74
2021/12/17 01:10:23;;;;;;;24.70;18.85;;;;;;;4.22;100.00;100309.88;2070985;28;20219;-74
2021/12/17 01:11:38;;;;;;;20.58;18.38;;;;;;;4.28;100.00;100303.69;2077958;28;20246;-75
2021/12/17 01:13:11;;;;;;;28.50;18.75;;;;;;;4.35;100.00;100307.06;2073995;28;20302;-74
2021/12/17 01:14:32;;;;;;;28.80;17.75;;;;;;;4.36;100.00;100307.88;2078342;28;20233;-75
2021/12/17 01:15:52;;;;;;;19.65;17.52;;;;;;;4.35;100.00;100316.81;2078594;28;20674;-74
2021/12/17 01:17:03;;;;;;;22.90;17.90;;;;;;;4.32;100.00;100309.34;2078002;28;20227;-75
2021/12/17 01:18:37;;;;;;;23.42;18.17;;;;;;;4.29;100.00;100300.03;2077893;28;20231;-75
2021/12/17 01:20:12;;;;;;;23.33;18.25;;;;;;;4.36;100.00;100298.09;2078042;28;20235;-75
2021/12/17 01:21:29;;;;;;;27.48;18.98;;;;;;;4.30;100.00;100299.00;2073087;28;20223;-76
2021/12/17 01:23:03;;;;;;;20.95;18.75;;;;;;;4.28;100.00;100293.13;2078614;28;20250;-74
2021/12/17 01:24:34;;;;;;;26.60;19.52;;;;;;;4.27;100.00;100286.25;2078032;28;20223;-74
2021/12/17 01:25:52;;;;;;;21.63;19.33;;;;;;;4.27;100.00;100296.81;2072311;28;20228;-74
2021/12/17 01:35:45;;;;;;;27.85;18.75;;;;;;;4.28;100.00;100308.97;2078148;28;20728;-75
2021/12/17 01:37:05;;;;;;;23.05;18.80;;;;;;;4.30;100.00;100314.03;2078347;28;20227;-74
2021/12/17 01:41:04;;;;;;;20.80;18.45;;;;;;;4.31;100.00;100303.25;2067816;28;20717;-74
2021/12/17 01:42:06;;;;;;;22.45;18.63;;;;;;;4.34;100.00;100310.72;2078022;28;20240;-74
2021/12/17 01:43:11;;;;;;;23.10;18.65;;;;;;;4.42;100.00;100301.66;2070046;28;20228;-75
2021/12/17 01:44:13;;;;;;;22.27;19.15;;;;;;;4.40;100.00;100312.47;2078764;28;20253;-74
2021/12/17 01:45:15;;;;;;;23.35;18.95;;;;;;;4.36;100.00;100303.38;2086630;28;20225;-75
2021/12/17 01:46:20;;;;;;;25.67;18.50;;;;;;;4.40;100.00;100317.75;2078322;28;20226;-74
2021/12/17 01:47:21;;;;;;;22.92;18.20;;;;;;;4.40;100.00;100304.53;2070704;28;20224;-74
2021/12/17 01:48:32;;;;;;;21.00;18.77;;;;;;;4.36;100.00;100299.94;2078438;28;20222;-74
2021/12/17 01:56:31;;;;;;;23.65;17.95;;;;;;;4.34;100.00;100302.78;2083495;28;20580;-74
2021/12/17 01:59:23;;;;;;;21.73;18.38;;;;;;;4.34;100.00;100304.63;2081005;28;20229;-74
2021/12/17 02:00:28;;;;;;;28.88;18.40;;;;;;;4.34;100.00;100299.34;2077573;28;20677;-74
2021/12/17 02:01:29;;;;;;;24.70;17.65;;;;;;;4.33;100.00;100295.88;2070614;28;20590;-74
2021/12/17 02:02:37;;;;;;;23.90;18.17;;;;;;;4.35;100.00;100296.50;2078265;28;20718;-74
2021/12/17 02:03:42;;;;;;;20.08;17.92;;;;;;;4.36;100.00;100289.38;2077752;28;20375;-74
2021/12/17 02:04:44;;;;;;;23.42;17.85;;;;;;;4.32;100.00;100283.72;2086870;28;20245;-73
2021/12/17 02:05:46;;;;;;;21.02;18.73;;;;;;;4.35;100.00;100288.56;2086593;28;20226;-75
2021/12/17 02:06:47;;;;;;;23.13;18.42;;;;;;;4.31;100.00;100276.81;2078300;28;20219;-74
2021/12/17 02:07:52;;;;;;;25.03;18.90;;;;;;;4.29;100.00;100281.53;2086104;28;20256;-74
2021/12/17 02:08:54;;;;;;;28.02;19.70;;;;;;;4.25;100.00;100275.06;2069655;28;20255;-75
2021/12/17 02:10:31;;;;;;;24.88;19.40;;;;;;;4.25;100.00;100281.16;2070149;28;20248;-74
2021/12/17 02:12:09;;;;;;;33.17;18.70;;;;;;;4.31;100.00;100287.38;2069274;28;20666;-74
2021/12/17 02:19:59;;;;;;;25.40;18.48;;;;;;;4.35;100.00;100270.06;2080026;28;20685;-74
2021/12/17 02:29:47;;;;;;;24.85;18.42;;;;;;;4.39;100.00;100289.72;2056711;28;20318;-74
2021/12/17 02:31:02;;;;;;;22.52;18.02;;;;;;;4.43;100.00;100288.25;2080672;28;20219;-74
2021/12/17 02:32:06;;;;;;;21.40;18.30;;;;;;;4.38;100.00;100277.53;2077691;28;20229;-74
2021/12/17 02:33:07;;;;;;;27.50;19.02;;;;;;;4.36;100.00;100263.75;2070281;28;20220;-74
2021/12/17 02:34:26;;;;;;;22.33;18.05;;;;;;;4.35;100.00;100266.63;2077806;28;20603;-74
2021/12/17 02:35:34;;;;;;;22.20;17.73;;;;;;;4.33;100.00;100260.75;2077492;28;20223;-74
2021/12/17 02:36:39;;;;;;;22.88;19.20;;;;;;;4.32;100.00;100272.34;2070663;28;20234;-73
2021/12/17 02:37:45;;;;;;;25.40;19.50;;;;;;;4.30;100.00;100267.28;2070435;28;20717;-74
2021/12/17 02:39:33;;;;;;;27.70;19.35;;;;;;;4.38;100.00;100272.25;2069224;28;20229;-74
2021/12/17 02:46:20;;;;;;;20.60;17.75;;;;;;;4.32;100.00;100270.50;2063802;28;20299;-74
2021/12/17 02:47:21;;;;;;;22.48;19.17;;;;;;;4.30;100.00;100264.66;2062066;28;20220;-74
2021/12/17 02:48:24;;;;;;;30.77;18.33;;;;;;;4.32;100.00;100270.50;2061501;28;20271;-75
2021/12/17 02:49:27;;;;;;;22.67;17.38;;;;;;;4.34;100.00;100271.09;2078109;28;20454;-74
2021/12/17 02:50:29;;;;;;;20.70;18.65;;;;;;;4.32;100.00;100273.16;2077671;28;20234;-74
2021/12/17 02:51:30;;;;;;;23.00;18.05;;;;;;;4.36;100.00;100273.53;2069942;28;20326;-74
2021/12/17 02:52:36;;;;;;;25.43;18.10;;;;;;;4.31;100.00;100271.53;2086188;28;20231;-74
2021/12/17 02:53:39;;;;;;;23.85;18.77;;;;;;;4.32;100.00;100278.44;2077587;28;20215;-74
2021/12/17 02:54:40;;;;;;;21.20;18.55;;;;;;;4.31;100.00;100274.19;2069674;28;20806;-74
2021/12/17 02:55:46;;;;;;;23.42;18.55;;;;;;;4.29;100.00;100264.88;2086125;28;20238;-74
2021/12/17 02:56:48;;;;;;;21.48;18.27;;;;;;;4.30;100.00;100259.38;2077159;28;20771;-74
2021/12/17 02:57:49;;;;;;;26.70;18.92;;;;;;;4.36;100.00;100273.53;2078159;28;20630;-74
2021/12/17 02:58:53;;;;;;;20.95;18.88;;;;;;;4.31;100.00;100270.75;2086307;28;20237;-73
2021/12/17 02:59:54;;;;;;;26.27;19.80;;;;;;;4.31;100.00;100263.63;2070196;28;20228;-74
2021/12/17 03:00:58;;;;;;;21.27;19.10;;;;;;;4.31;100.00;100262.81;2070117;28;20744;-74
2021/12/17 03:01:59;;;;;;;25.88;20.08;;;;;;;4.30;100.00;100267.28;2078096;28;20223;-74
2021/12/17 03:03:03;;;;;;;23.00;18.90;;;;;;;4.32;100.00;100283.72;2077829;28;20582;-74
2021/12/17 03:04:04;;;;;;;20.73;18.55;;;;;;;4.27;100.00;100275.69;2069729;28;20281;-74
2021/12/17 03:05:06;;;;;;;24.97;19.60;;;;;;;4.29;100.00;100273.59;2069847;28;20298;-74
2021/12/17 03:06:09;;;;;;;25.02;18.83;;;;;;;4.29;100.00;100268.31;2086198;28;20313;-74
2021/12/17 03:07:13;;;;;;;24.10;18.33;;;;;;;4.30;100.00;100267.28;2085505;28;20689;-75
2021/12/17 03:08:16;;;;;;;23.38;18.08;;;;;;;4.33;100.00;100264.19;2070132;28;20231;-74
2021/12/17 03:09:25;;;;;;;23.63;19.05;;;;;;;4.31;100.00;100270.75;2078030;28;20223;-74
2021/12/17 03:10:26;;;;;;;23.70;17.98;;;;;;;4.31;100.00;100278.66;2077451;28;20354;-74
2021/12/17 03:11:28;;;;;;;25.30;18.40;;;;;;;4.28;100.00;100277.28;2069715;28;20226;-74
2021/12/17 03:12:34;;;;;;;23.27;18.40;;;;;;;4.25;100.00;100275.06;2086162;28;20222;-74
2021/12/17 03:13:38;;;;;;;21.80;19.02;;;;;;;4.28;100.00;100272.00;2092707;28;20222;-74
2021/12/17 03:14:47;;;;;;;22.85;19.05;;;;;;;4.26;100.00;100268.78;2078381;28;20231;-74
2021/12/17 03:15:53;;;;;;;23.60;19.05;;;;;;;4.21;100.00;100274.72;2078579;28;20230;-74
2021/12/17 03:17:01;;;;;;;23.15;19.60;;;;;;;4.23;100.00;100274.50;2078297;28;20616;-75
2021/12/17 03:23:25;;;;;;;26.30;18.40;;;;;;;4.23;100.00;100270.00;2059141;28;20663;-74
2021/12/17 03:23:28;;;;;;;22.00;18.80;;;;;;;4.24;100.00;100286.66;2071596;28;20224;-74
2021/12/17 03:24:31;;;;;;;21.60;18.95;;;;;;;4.27;100.00;100278.31;2070224;28;20228;-74
2021/12/17 03:25:32;;;;;;;25.05;18.00;;;;;;;4.28;100.00;100273.84;2077985;28;20594;-74
2021/12/17 03:26:33;;;;;;;24.87;18.97;;;;;;;4.35;100.00;100282.47;2077867;28;20365;-74
2021/12/17 03:27:36;;;;;;;21.58;19.23;;;;;;;4.27;100.00;100280.97;2077840;28;20723;-74
2021/12/17 03:28:42;;;;;;;21.80;18.85;;;;;;;4.28;100.00;100271.19;2075245;28;20238;-75
2021/12/17 03:29:44;;;;;;;29.08;20.05;;;;;;;4.25;100.00;100283.00;2070233;28;20235;-74
2021/12/17 03:30:46;;;;;;;24.38;19.52;;;;;;;4.26;100.00;100274.06;2069795;28;20295;-74
2021/12/17 03:31:48;;;;;;;22.58;18.35;;;;;;;4.30;100.00;100271.78;2078317;28;20215;-74
2021/12/17 03:32:48;;;;;;;20.55;17.98;;;;;;;4.22;100.00;100263.13;2095401;28;20225;-74
2021/12/17 03:33:52;;;;;;;20.87;17.80;;;;;;;4.22;100.00;100264.97;2079269;28;20227;-73
2021/12/17 03:34:56;;;;;;;24.63;18.05;;;;;;;4.22;100.00;100276.34;2071224;28;20593;-73
2021/12/17 03:35:58;;;;;;;22.17;17.75;;;;;;;4.26;100.00;100255.56;2071185;28;20232;-74
2021/12/17 03:37:00;;;;;;;24.15;17.60;;;;;;;4.22;100.00;100257.84;2071467;28;20639;-74
2021/12/17 03:38:08;;;;;;;23.33;19.05;;;;;;;4.18;100.00;100266.47;2078929;28;20220;-74
2021/12/17 03:39:12;;;;;;;21.92;19.25;;;;;;;4.21;100.00;100266.81;2071242;28;20596;-73
2021/12/17 03:40:15;;;;;;;20.98;17.85;;;;;;;4.18;100.00;100267.25;2079567;28;20247;-74
2021/12/17 03:41:21;;;;;;;30.65;18.40;;;;;;;4.22;100.00;100272.88;2079314;28;20689;-73
2021/12/17 03:42:47;;;;;;;24.98;19.88;;;;;;;4.23;100.00;100279.78;2078633;28;20577;-74
2021/12/17 03:43:50;;;;;;;21.48;17.85;;;;;;;4.21;100.00;100273.91;2088330;28;20600;-74
2021/12/17 03:44:52;;;;;;;22.98;18.27;;;;;;;4.18;100.00;100274.38;2087258;28;20776;-74
2021/12/17 03:46:12;;;;;;;20.33;18.25;;;;;;;4.13;100.00;100268.94;2078769;28;20697;-73
2021/12/17 03:47:14;;;;;;;18.98;16.98;;;;;;;4.11;100.00;100274.47;2079219;28;20232;-74
2021/12/17 03:48:41;;;;;;;19.27;17.27;;;;;;;4.09;100.00;100284.44;2069394;28;20239;-74
2021/12/17 03:49:43;;;;;;;19.83;17.42;;;;;;;4.15;100.00;100283.53;2079046;28;20226;-74
2021/12/17 03:50:46;;;;;;;22.35;17.42;;;;;;;4.13;100.00;100274.22;2079288;28;20306;-74
2021/12/17 03:51:52;;;;;;;24.35;17.85;;;;;;;4.14;100.00;100275.84;2079373;28;20224;-74
2021/12/17 03:52:56;;;;;;;20.45;17.15;;;;;;;4.13;100.00;100276.88;2071731;28;20770;-74
2021/12/17 03:54:03;;;;;;;20.10;18.05;;;;;;;4.08;100.00;100282.81;2079990;28;20306;-74
2021/12/17 03:55:12;;;;;;;19.52;17.70;;;;;;;4.13;100.00;100285.59;2076839;28;20243;-74
2021/12/17 03:56:19;;;;;;;21.30;17.48;;;;;;;4.17;100.00;100286.78;2070917;28;20576;-74
2021/12/17 03:57:21;;;;;;;20.33;18.33;;;;;;;4.18;100.00;100284.94;2063129;28;20225;-74
2021/12/17 03:58:26;;;;;;;20.80;17.77;;;;;;;4.15;100.00;100280.09;2062839;28;20255;-74
2021/12/17 03:59:27;;;;;;;20.67;18.63;;;;;;;4.15;100.00;100278.25;2079102;28;20681;-74
2021/12/17 04:00:31;;;;;;;21.83;18.15;;;;;;;4.11;100.00;100278.94;2079018;28;20330;-74
2021/12/17 04:01:36;;;;;;;25.55;18.20;;;;;;;4.15;100.00;100274.81;2071043;28;20243;-74
2021/12/17 04:02:39;;;;;;;23.17;17.63;;;;;;;4.15;100.00;100285.38;2063016;28;20274;-74
2021/12/17 04:03:41;;;;;;;20.35;17.83;;;;;;;4.21;100.00;100281.84;2063189;28;20221;-74
2021/12/17 04:04:54;;;;;;;20.00;18.00;;;;;;;4.19;100.00;100278.63;2064005;28;20239;-74
2021/12/17 04:06:08;;;;;;;25.05;18.50;;;;;;;4.17;100.00;100278.03;2078866;28;20223;-75
2021/12/17 04:07:21;;;;;;;23.02;19.27;;;;;;;4.14;100.00;100274.00;2079979;28;20215;-74
2021/12/17 04:08:47;;;;;;;20.98;18.80;;;;;;;4.14;100.00;100275.84;2069999;28;20270;-74
2021/12/17 04:10:10;;;;;;;20.55;18.38;;;;;;;4.07;100.00;100278.56;2078823;28;20576;-74
2021/12/17 04:11:19;;;;;;;19.75;17.65;;;;;;;4.10;100.00;100277.31;2079139;28;20227;-74
2021/12/17 04:12:35;;;;;;;22.40;17.90;;;;;;;4.08;100.00;100276.72;2078666;28;20689;-74
2021/12/17 04:13:53;;;;;;;21.33;17.60;;;;;;;4.05;100.00;100282.47;2073368;28;20219;-74
2021/12/17 04:14:53;;;;;;;24.13;18.48;;;;;;;4.09;100.00;100283.66;2071621;28;20247;-74
2021/12/17 04:15:59;;;;;;;25.03;18.23;;;;;;;4.15;100.00;100282.72;2079154;28;20238;-74
2021/12/17 04:17:04;;;;;;;20.30;18.25;;;;;;;4.13;100.00;100276.88;2079147;28;20227;-74
2021/12/17 04:18:07;;;;;;;24.60;18.67;;;;;;;4.15;100.00;100280.09;2079624;28;20231;-73
2021/12/17 04:19:10;;;;;;;26.38;19.23;;;;;;;4.09;100.00;100267.81;2078577;28;20677;-74
2021/12/17 04:20:11;;;;;;;21.63;18.98;;;;;;;4.15;100.00;100275.63;2079171;28;20223;-74
2021/12/17 04:21:15;;;;;;;20.98;18.73;;;;;;;4.11;100.00;100271.00;2094197;28;20317;-73
2021/12/17 04:22:17;;;;;;;22.08;19.15;;;;;;;4.10;100.00;100267.56;2086743;28;20238;-74
2021/12/17 04:23:22;;;;;;;24.05;18.75;;;;;;;4.13;100.00;100279.50;2079148;28;20633;-73
2021/12/17 04:24:27;;;;;;;21.90;19.63;;;;;;;4.05;100.00;100261.34;2070960;28;20335;-74
2021/12/17 04:25:29;;;;;;;25.85;19.38;;;;;;;4.01;100.00;100257.53;2079257;28;20227;-74
2021/12/17 04:26:31;;;;;;;22.73;18.42;;;;;;;4.03;100.00;100266.84;2078949;28;20712;-74
2021/12/17 04:27:41;;;;;;;20.77;17.98;;;;;;;4.02;100.00;100277.63;2078544;28;20231;-74
2021/12/17 04:28:46;;;;;;;21.53;17.77;;;;;;;4.06;100.00;100262.94;2078861;28;20267;-74
2021/12/17 04:29:49;;;;;;;23.05;18.60;;;;;;;4.05;100.00;100270.06;2095796;28;20221;-73
2021/12/17 04:30:52;;;;;;;23.23;18.50;;;;;;;4.03;100.00;100266.03;2087006;28;20222;-73
2021/12/17 04:31:55;;;;;;;24.27;19.02;;;;;;;4.01;100.00;100257.53;2078563;28;20247;-75
2021/12/17 04:32:58;;;;;;;26.73;17.98;;;;;;;4.05;100.00;100262.13;2078926;28;20231;-74
2021/12/17 04:34:00;;;;;;;19.83;17.73;;;;;;;4.01;100.00;100268.09;2070931;28;20224;-74
2021/12/17 04:35:06;;;;;;;22.05;17.88;;;;;;;3.98;100.00;100261.41;2071296;28;20686;-74
2021/12/17 04:36:20;;;;;;;21.13;18.05;;;;;;;3.99;100.00;100265.66;2070526;28;20219;-73
2021/12/17 04:37:23;;;;;;;21.33;17.70;;;;;;;4.01;100.00;100266.28;2063481;28;20235;-74
2021/12/17 04:38:34;;;;;;;22.30;18.42;;;;;;;4.00;100.00;100261.19;2063526;28;20221;-74
2021/12/17 04:39:36;;;;;;;22.23;17.98;;;;;;;3.97;100.00;100255.31;2062721;28;20247;-74
2021/12/17 04:40:42;;;;;;;23.95;17.83;;;;;;;3.98;100.00;100253.50;2070818;28;20391;-74
2021/12/17 04:41:49;;;;;;;23.52;18.88;;;;;;;3.95;100.00;100259.22;2063036;28;20241;-74
2021/12/17 04:43:00;;;;;;;24.20;18.75;;;;;;;3.97;100.00;100262.44;2063544;28;20234;-74
2021/12/17 04:44:11;;;;;;;24.48;19.48;;;;;;;3.95;100.00;100260.03;2064120;28;20617;-74
2021/12/17 04:45:14;;;;;;;26.42;19.10;;;;;;;3.97;100.00;100260.59;2079391;28;20600;-74
2021/12/17 04:46:23;;;;;;;23.45;18.48;;;;;;;3.97;100.00;100254.53;2078667;28;20706;-74
2021/12/17 04:58:17;;;;;;;19.90;18.05;;;;;;;3.96;100.00;100268.75;2038050;28;20230;-74
2021/12/17 04:59:22;;;;;;;23.10;18.38;;;;;;;3.92;100.00;100265.78;2070779;28;20694;-74
2021/12/17 05:00:28;;;;;;;21.73;17.05;;;;;;;3.89;100.00;100258.28;2070267;28;20266;-74
2021/12/17 05:01:42;;;;;;;22.20;16.90;;;;;;;3.85;100.00;100245.75;2070229;28;20743;-74
2021/12/17 05:02:48;;;;;;;19.35;17.05;;;;;;;3.86;100.00;100245.53;2070505;28;20683;-74
2021/12/17 05:03:49;;;;;;;23.90;17.65;;;;;;;3.89;100.00;100245.06;2071168;28;20227;-73
2021/12/17 05:04:54;;;;;;;23.60;17.58;;;;;;;3.86;100.00;100237.59;2070567;28;20641;-74
2021/12/17 05:05:57;;;;;;;21.08;17.77;;;;;;;3.92;100.00;100241.22;2069354;28;20255;-74
2021/12/17 05:07:06;;;;;;;20.92;17.55;;;;;;;3.86;100.00;100240.25;2079375;28;20607;-74
2021/12/17 05:08:12;;;;;;;24.85;17.63;;;;;;;3.82;100.00;100254.94;2078340;28;20250;-74
2021/12/17 05:09:25;;;;;;;21.33;17.70;;;;;;;3.86;100.00;100242.88;2071192;28;20227;-74
2021/12/17 05:10:42;;;;;;;21.00;17.88;;;;;;;3.89;100.00;100239.78;2071536;28;20252;-73
2021/12/17 05:18:30;;;;;;;21.13;18.20;;;;;;;3.78;100.00;100234.47;2072396;28;20254;-74
2021/12/17 05:19:45;;;;;;;22.08;16.90;;;;;;;3.82;100.00;100244.38;2071010;28;20246;-73
2021/12/17 05:20:49;;;;;;;21.33;17.60;;;;;;;3.87;100.00;100227.84;2071790;28;20278;-74
2021/12/17 05:21:51;;;;;;;19.23;17.23;;;;;;;3.88;100.00;100243.47;2078936;28;20223;-73
2021/12/17 05:22:57;;;;;;;19.97;17.87;;;;;;;3.85;100.00;100241.28;2078627;28;20247;-73
2021/12/17 05:23:59;;;;;;;19.80;17.52;;;;;;;3.84;100.00;100238.88;2078689;28;20244;-73
2021/12/17 05:24:59;;;;;;;19.85;18.05;;;;;;;3.85;100.00;100241.28;2078268;28;20739;-73
2021/12/17 05:26:08;;;;;;;22.77;19.42;;;;;;;3.79;100.00;100231.59;2070488;28;20220;-74
2021/12/17 05:27:13;;;;;;;19.75;17.83;;;;;;;3.85;100.00;100236.00;2071418;28;20220;-74
2021/12/17 05:28:37;;;;;;;20.75;18.67;;;;;;;3.84;100.00;100234.41;2087912;28;20701;-74
2021/12/17 05:29:39;;;;;;;20.20;18.25;;;;;;;3.83;100.00;100243.34;2086029;28;20264;-74
2021/12/17 05:30:46;;;;;;;21.27;19.13;;;;;;;3.78;100.00;100237.09;2070458;28;20282;-74
2021/12/17 05:31:47;;;;;;;21.70;18.33;;;;;;;3.80;100.00;100242.97;2070847;28;20220;-74
2021/12/17 05:32:49;;;;;;;20.65;18.60;;;;;;;3.78;100.00;100237.91;2078535;28;20314;-74
2021/12/17 05:33:56;;;;;;;19.95;18.00;;;;;;;3.76;100.00;100229.41;2078383;28;20585;-74
2021/12/17 05:35:02;;;;;;;28.50;19.80;;;;;;;3.77;100.00;100228.38;2078071;28;20318;-74
2021/12/17 05:36:05;;;;;;;21.15;18.38;;;;;;;3.79;100.00;100228.16;2070384;28;20264;-74
2021/12/17 05:37:06;;;;;;;26.27;19.33;;;;;;;3.77;100.00;100223.09;2070381;28;20244;-74
2021/12/17 05:38:09;;;;;;;20.10;18.27;;;;;;;3.83;100.00;100224.88;2067744;28;20228;-75
2021/12/17 05:39:11;;;;;;;22.80;18.42;;;;;;;3.77;100.00;100223.09;2085342;28;20238;-74
2021/12/17 05:40:14;;;;;;;24.08;18.88;;;;;;;3.75;100.00;100222.53;2086321;28;20238;-73
2021/12/17 05:41:18;;;;;;;24.73;18.35;;;;;;;3.79;100.00;100234.25;2086880;28;20222;-73
2021/12/17 05:42:43;;;;;;;20.17;18.17;;;;;;;3.77;100.00;100233.66;2086324;28;20637;-74
2021/12/17 05:43:56;;;;;;;21.55;18.13;;;;;;;3.74;100.00;100241.22;2078515;28;20227;-74
2021/12/17 05:45:07;;;;;;;19.05;17.17;;;;;;;3.72;100.00;100236.16;2078133;28;20675;-74
2021/12/17 05:46:11;;;;;;;26.40;18.08;;;;;;;3.76;100.00;100239.19;2071113;28;20224;-74
2021/12/17 05:47:12;;;;;;;23.95;18.10;;;;;;;3.77;100.00;100233.66;2070597;28;20658;-74
2021/12/17 05:48:18;;;;;;;19.80;18.08;;;;;;;3.77;100.00;100233.66;2078426;28;20310;-73
2021/12/17 05:49:21;;;;;;;23.05;18.48;;;;;;;3.76;100.00;100239.97;2078328;28;20247;-73
2021/12/17 05:50:23;;;;;;;24.65;19.15;;;;;;;3.76;100.00;100234.69;2070450;28;20227;-74
2021/12/17 05:51:24;;;;;;;24.23;19.15;;;;;;;3.76;100.00;100241.81;2070075;28;20228;-74
2021/12/17 05:52:25;;;;;;;25.37;18.07;;;;;;;3.78;100.00;100245.84;2070251;28;20278;-73
2021/12/17 05:53:29;;;;;;;21.05;18.75;;;;;;;3.77;100.00;100238.94;2070081;28;20266;-73
2021/12/17 05:54:32;;;;;;;24.35;19.65;;;;;;;3.80;100.00;100235.03;2077387;28;20223;-73
2021/12/17 05:55:34;;;;;;;23.67;19.48;;;;;;;3.77;100.00;100233.66;2078191;28;20646;-73
2021/12/17 05:56:37;;;;;;;25.20;18.80;;;;;;;3.77;100.00;100231.03;2078298;28;20305;-73
2021/12/17 05:57:38;;;;;;;22.63;18.25;;;;;;;3.77;100.00;100236.31;2077832;28;20555;-74
2021/12/17 05:58:40;;;;;;;20.15;18.05;;;;;;;3.73;100.00;100224.56;2078254;28;20592;-73
2021/12/17 05:59:43;;;;;;;21.58;18.25;;;;;;;3.70;100.00;100225.03;2078523;28;20239;-73
2021/12/17 06:00:46;;;;;;;22.02;18.40;;;;;;;3.74;100.00;100243.88;2070345;28;20281;-73
2021/12/17 06:02:19;;;;;;;25.70;19.73;;;;;;;3.69;100.00;100233.97;2080842;28;20228;-75
2021/12/17 06:03:23;;;;;;;24.00;18.33;;;;;;;3.64;100.00;100237.25;2078105;28;20636;-73
2021/12/17 06:04:36;;;;;;;20.42;18.48;;;;;;;3.65;100.00;100230.97;2071479;28;20255;-73
2021/12/17 06:05:39;;;;;;;21.75;18.00;;;;;;;3.68;100.00;100232.38;2078157;28;20223;-73
2021/12/17 06:06:46;;;;;;;22.75;18.38;;;;;;;3.69;100.00;100226.06;2078206;28;20231;-73
2021/12/17 06:07:49;;;;;;;23.60;18.00;;;;;;;3.73;100.00;100237.75;2062685;28;20982;-73
2021/12/17 06:08:51;;;;;;;25.08;17.40;;;;;;;3.71;100.00;100237.19;2078573;28;20231;-73
2021/12/17 06:09:58;;;;;;;23.08;18.73;;;;;;;3.66;100.00;100237.88;2077209;28;20227;-73
2021/12/17 06:11:01;;;;;;;19.60;17.60;;;;;;;3.71;100.00;100265.41;2070042;28;20251;-73
2021/12/17 06:12:05;;;;;;;20.60;18.23;;;;;;;3.76;100.00;100258.44;2062133;28;20225;-74
2021/12/17 06:13:06;;;;;;;21.85;17.70;;;;;;;3.82;100.00;100262.84;2070047;28;20745;-74
2021/12/17 06:14:08;;;;;;;19.98;17.85;;;;;;;3.76;100.00;100255.00;2086032;28;20309;-74
2021/12/17 06:15:19;;;;;;;21.95;17.30;;;;;;;3.78;100.00;100248.47;2078203;28;20219;-74
2021/12/17 06:16:21;;;;;;;22.95;17.70;;;;;;;3.77;100.00;100259.25;2069977;28;20238;-74
2021/12/17 06:17:23;;;;;;;21.10;17.40;;;;;;;3.74;100.00;100265.00;2086435;28;20225;-74
2021/12/17 06:18:24;;;;;;;20.27;17.15;;;;;;;3.73;100.00;100264.16;2077504;28;20310;-74
2021/12/17 06:19:26;;;;;;;20.63;16.97;;;;;;;3.68;100.00;100256.91;2070149;28;20230;-74
2021/12/17 06:20:28;;;;;;;19.23;17.38;;;;;;;3.74;100.00;100265.00;2070061;28;20761;-74
2021/12/17 06:21:34;;;;;;;18.92;17.13;;;;;;;3.74;100.00;100271.06;2070074;28;20226;-73
2021/12/17 06:22:36;;;;;;;19.25;16.90;;;;;;;3.74;100.00;100257.06;2070019;28;20271;-73
2021/12/17 06:23:40;;;;;;;26.40;17.73;;;;;;;3.71;100.00;100271.50;2069528;28;20251;-74
2021/12/17 06:24:44;;;;;;;19.17;17.20;;;;;;;3.66;100.00;100272.16;2069955;28;20231;-73
2021/12/17 06:25:45;;;;;;;20.60;17.30;;;;;;;3.68;100.00;100279.88;2069949;28;20224;-74
2021/12/17 06:26:47;;;;;;;19.13;17.27;;;;;;;3.73;100.00;100273.91;2070096;28;20224;-73
2021/12/17 06:27:48;;;;;;;20.98;18.05;;;;;;;3.73;100.00;100280.00;2069977;28;20226;-74
2021/12/17 06:28:53;;;;;;;19.25;17.15;;;;;;;3.71;100.00;100278.59;2078123;28;20293;-73
2021/12/17 06:29:55;;;;;;;20.88;17.00;;;;;;;3.68;100.00;100274.59;2077208;28;20227;-74
2021/12/17 06:30:59;;;;;;;17.63;16.02;;;;;;;3.72;100.00;100267.81;2069839;28;20240;-73
2021/12/17 06:32:05;;;;;;;19.95;16.85;;;;;;;3.70;100.00;100269.88;2070511;28;20228;-73
2021/12/17 06:33:08;;;;;;;20.20;16.88;;;;;;;3.73;100.00;100284.47;2085774;28;20215;-76
2021/12/17 06:34:09;;;;;;;20.52;17.08;;;;;;;3.72;100.00;100267.03;2077877;28;20223;-74
2021/12/17 06:35:11;;;;;;;18.60;16.80;;;;;;;3.68;100.00;100271.94;2070068;28;20335;-75